Time;durP1;ratioP1;P1;durP2;ratioP2;P2;SDS_P1;SDS_P2;PMS_P1;PMS_P2;Temp;Humidity;BMP_temperature;BMP_pressure;BME280_temperature;BME280_humidity;BME280_pressure;Samples;Min_cycle;Max_cycle;Signal;HPM_P1;HPM_P2
2022/06/15 00:02:07;;;;;;;4.40;2.13;;;24.20;63.00;;;;;;4957420;28;20549;-71
2022/06/15 00:04:34;;;;;;;4.33;2.67;;;24.20;63.00;;;;;;4958049;28;20437;-71
2022/06/15 00:07:03;;;;;;;2.50;2.00;;;24.20;63.10;;;;;;4973671;28;20458;-71
2022/06/15 00:09:31;;;;;;;3.87;2.43;;;24.10;63.00;;;;;;4973658;28;20497;-71
2022/06/15 00:11:59;;;;;;;3.07;2.20;;;24.10;63.00;;;;;;4973673;28;20501;-71
2022/06/15 00:14:28;;;;;;;2.53;2.17;;;24.10;63.20;;;;;;4974010;28;20450;-70
2022/06/15 00:16:59;;;;;;;5.20;2.87;;;24.10;63.20;;;;;;4957581;28;20947;-71
2022/06/15 00:19:28;;;;;;;2.63;2.23;;;24.10;63.20;;;;;;4974367;28;20524;-71
2022/06/15 00:21:54;;;;;;;3.43;2.37;;;24.10;63.30;;;;;;4974364;28;20529;-71
2022/06/15 00:24:20;;;;;;;3.50;2.07;;;24.10;63.40;;;;;;4957775;28;20403;-71
2022/06/15 00:26:48;;;;;;;4.47;2.50;;;24.10;63.30;;;;;;4973169;28;20422;-71
2022/06/15 00:29:15;;;;;;;3.37;2.43;;;24.00;63.40;;;;;;4973018;28;20446;-71
2022/06/15 00:31:41;;;;;;;3.77;2.53;;;24.00;63.40;;;;;;4974359;28;20821;-71
2022/06/15 00:34:07;;;;;;;3.00;2.30;;;24.00;63.60;;;;;;4973363;28;20410;-71
2022/06/15 00:36:36;;;;;;;4.00;2.57;;;24.00;63.60;;;;;;4973930;28;20426;-71
2022/06/15 00:39:05;;;;;;;4.00;2.30;;;23.90;63.40;;;;;;4972793;28;20500;-71
2022/06/15 00:41:36;;;;;;;4.53;2.27;;;23.90;63.50;;;;;;4956935;28;20464;-71
2022/06/15 00:44:24;;;;;;;4.00;2.43;;;23.90;63.60;;;;;;4972590;28;20410;-71
2022/06/15 00:47:03;;;;;;;2.60;2.40;;;23.90;63.60;;;;;;4966341;28;20430;-71
2022/06/15 00:49:43;;;;;;;4.20;3.20;;;23.90;63.70;;;;;;4972465;28;20418;-71
2022/06/15 00:52:13;;;;;;;3.80;2.63;;;23.80;63.60;;;;;;5004994;28;20441;-71
2022/06/15 00:54:39;;;;;;;3.07;2.77;;;23.80;63.70;;;;;;4956092;28;20418;-71
2022/06/15 00:57:08;;;;;;;6.80;2.90;;;23.80;63.70;;;;;;4974069;28;20422;-71
2022/06/15 00:59:51;;;;;;;4.53;2.90;;;23.80;63.80;;;;;;4972417;28;20955;-70
2022/06/15 01:02:19;;;;;;;4.07;2.40;;;23.80;63.80;;;;;;4973629;28;20966;-71
2022/06/15 01:04:56;;;;;;;5.20;2.60;;;23.80;63.80;;;;;;4972759;28;20753;-71
2022/06/15 01:07:45;;;;;;;5.93;2.93;;;23.70;63.80;;;;;;4956262;28;20444;-71
2022/06/15 01:10:52;;;;;;;6.67;2.40;;;23.70;63.90;;;;;;4972370;28;20450;-71
2022/06/15 01:13:51;;;;;;;3.93;2.50;;;23.70;63.90;;;;;;4972432;28;20421;-71
2022/06/15 01:16:37;;;;;;;3.97;2.77;;;23.70;64.10;;;;;;4985521;28;20993;-71
2022/06/15 01:19:48;;;;;;;3.40;2.47;;;23.70;64.20;;;;;;4958898;28;20429;-71
2022/06/15 01:22:49;;;;;;;5.20;2.70;;;23.60;64.00;;;;;;4952318;28;20540;-71
2022/06/15 01:25:20;;;;;;;5.00;2.57;;;23.60;64.10;;;;;;4969104;28;20466;-71
2022/06/15 01:28:10;;;;;;;5.23;2.50;;;23.60;64.20;;;;;;4965545;28;20425;-71
2022/06/15 01:30:48;;;;;;;4.03;2.27;;;23.60;64.30;;;;;;4973340;28;20536;-71
2022/06/15 01:33:38;;;;;;;5.70;3.00;;;23.50;64.20;;;;;;4988065;28;20457;-70
2022/06/15 01:36:20;;;;;;;4.47;2.80;;;23.50;64.20;;;;;;4973408;28;20402;-71
2022/06/15 01:38:50;;;;;;;3.50;2.70;;;23.50;64.30;;;;;;4956113;28;20509;-71
2022/06/15 01:41:28;;;;;;;7.87;3.07;;;23.50;64.40;;;;;;4971379;28;20473;-71
2022/06/15 01:44:13;;;;;;;3.33;2.53;;;23.40;64.40;;;;;;4955934;28;20453;-71
2022/06/15 01:46:45;;;;;;;4.50;2.73;;;23.40;64.40;;;;;;4940387;28;20446;-71
2022/06/15 01:49:26;;;;;;;3.27;2.17;;;23.40;64.60;;;;;;4972101;28;20422;-71
2022/06/15 01:51:52;;;;;;;4.27;2.53;;;23.40;64.60;;;;;;4955537;28;20441;-71
2022/06/15 01:54:28;;;;;;;2.80;2.20;;;23.40;64.60;;;;;;4955455;28;20433;-70
2022/06/15 01:56:58;;;;;;;3.57;2.80;;;23.40;64.60;;;;;;4971032;28;20449;-71
2022/06/15 01:59:54;;;;;;;5.13;2.90;;;23.40;64.70;;;;;;4955898;28;20450;-71
2022/06/15 02:03:05;;;;;;;3.67;2.40;;;23.30;64.60;;;;;;4961144;28;20487;-70
2022/06/15 02:06:03;;;;;;;3.67;2.60;;;23.30;64.80;;;;;;4939518;28;20839;-71
2022/06/15 02:08:49;;;;;;;3.70;2.63;;;23.30;64.80;;;;;;4954301;28;20808;-71
2022/06/15 02:11:28;;;;;;;5.90;2.00;;;23.30;64.90;;;;;;4966935;28;20953;-71
2022/06/15 02:14:21;;;;;;;4.00;2.40;;;23.20;64.90;;;;;;4955350;28;20441;-71
2022/06/15 02:16:55;;;;;;;3.80;2.30;;;23.20;64.90;;;;;;4955932;28;20410;-71
2022/06/15 02:19:45;;;;;;;2.57;2.37;;;23.20;65.00;;;;;;4970925;28;20449;-71
2022/06/15 02:22:21;;;;;;;4.00;2.80;;;23.10;65.00;;;;;;4971356;28;20982;-71
2022/06/15 02:24:52;;;;;;;3.20;2.57;;;23.10;65.00;;;;;;4955891;28;20524;-71
2022/06/15 02:27:21;;;;;;;3.33;2.43;;;23.10;65.00;;;;;;4971320;28;20413;-71
2022/06/15 02:30:01;;;;;;;3.70;2.50;;;23.10;65.80;;;;;;4971290;28;20943;-71
2022/06/15 02:32:30;;;;;;;3.60;2.20;;;23.10;65.00;;;;;;4971477;28;20442;-71
2022/06/15 02:34:58;;;;;;;3.20;2.40;;;23.10;65.10;;;;;;4955561;28;20525;-71
2022/06/15 02:37:24;;;;;;;4.53;2.67;;;23.10;65.10;;;;;;4970979;28;20453;-72
2022/06/15 02:39:50;;;;;;;5.63;3.03;;;23.00;65.10;;;;;;4955005;28;20480;-72
2022/06/15 02:42:31;;;;;;;2.67;2.13;;;23.00;65.10;;;;;;4970886;28;20556;-72
2022/06/15 02:45:28;;;;;;;2.90;2.40;;;23.00;65.10;;;;;;4955440;28;20998;-72
2022/06/15 02:47:56;;;;;;;2.53;2.27;;;23.00;65.20;;;;;;4990225;28;20486;-72
2022/06/15 02:50:27;;;;;;;3.10;2.37;;;23.00;65.30;;;;;;4970657;28;20475;-71
2022/06/15 02:53:05;;;;;;;2.90;2.27;;;22.90;65.20;;;;;;4971212;28;20413;-72
2022/06/15 02:55:33;;;;;;;3.00;2.30;;;22.90;65.30;;;;;;4955042;28;20469;-72
2022/06/15 02:58:27;;;;;;;2.90;2.57;;;22.90;65.30;;;;;;5003836;28;20553;-72
2022/06/15 03:00:55;;;;;;;4.93;2.60;;;22.90;65.40;;;;;;4955316;28;20484;-72
2022/06/15 03:03:28;;;;;;;2.90;2.57;;;22.90;65.40;;;;;;4971204;28;20485;-72
2022/06/15 03:06:10;;;;;;;7.50;2.47;;;22.80;65.40;;;;;;4971917;28;20427;-72
2022/06/15 03:08:40;;;;;;;2.50;2.30;;;22.80;65.40;;;;;;4958425;28;20430;-72
2022/06/15 03:11:15;;;;;;;3.03;2.60;;;22.80;65.40;;;;;;4990030;28;20449;-72
2022/06/15 03:13:42;;;;;;;4.57;2.13;;;22.80;65.50;;;;;;4958484;28;20457;-72
2022/06/15 03:16:09;;;;;;;2.90;2.63;;;22.70;65.40;;;;;;4974355;28;20414;-72
2022/06/15 03:18:40;;;;;;;4.00;2.53;;;22.70;65.50;;;;;;4990986;28;20434;-72
2022/06/15 03:21:12;;;;;;;4.33;3.10;;;22.70;65.50;;;;;;5006655;28;20882;-72
2022/06/15 03:23:41;;;;;;;4.37;2.40;;;22.70;65.60;;;;;;4958277;28;20425;-72
2022/06/15 03:26:12;;;;;;;2.80;2.13;;;22.70;65.60;;;;;;4942295;28;20449;-72
2022/06/15 03:28:38;;;;;;;3.30;2.67;;;22.60;65.50;;;;;;4974446;28;20449;-72
2022/06/15 03:31:11;;;;;;;3.17;2.87;;;22.60;65.60;;;;;;4990219;28;20584;-72
2022/06/15 03:33:39;;;;;;;4.00;2.80;;;22.60;65.70;;;;;;4958452;28;20825;-72
2022/06/15 03:36:13;;;;;;;4.73;2.50;;;22.60;65.70;;;;;;4958178;28;20445;-72
2022/06/15 03:38:45;;;;;;;3.13;2.53;;;22.60;65.70;;;;;;4974168;28;20599;-72
2022/06/15 03:41:22;;;;;;;3.00;2.37;;;22.60;65.80;;;;;;4957455;28;20465;-72
2022/06/15 03:43:53;;;;;;;5.80;2.70;;;22.50;65.80;;;;;;4973914;28;20444;-72
2022/06/15 03:46:26;;;;;;;3.90;2.80;;;22.50;65.80;;;;;;4958194;28;20445;-72
2022/06/15 03:48:57;;;;;;;4.53;2.37;;;22.50;65.80;;;;;;4958052;28;20424;-72
2022/06/15 03:51:31;;;;;;;5.40;2.40;;;22.50;65.80;;;;;;4973721;28;20449;-72
2022/06/15 03:54:03;;;;;;;3.23;2.80;;;22.50;65.90;;;;;;4957691;28;20448;-72
2022/06/15 03:56:47;;;;;;;2.53;2.17;;;22.50;65.90;;;;;;4973981;28;20473;-72
2022/06/15 03:59:18;;;;;;;2.57;2.37;;;22.40;65.90;;;;;;4957458;28;20469;-72
2022/06/15 04:01:48;;;;;;;3.50;2.73;;;22.40;65.90;;;;;;4956828;28;21030;-72
2022/06/15 04:04:14;;;;;;;3.90;2.60;;;22.40;66.00;;;;;;4957739;28;20787;-72
2022/06/15 04:06:41;;;;;;;3.73;2.90;;;22.40;66.00;;;;;;4941862;28;20439;-72
2022/06/15 04:09:07;;;;;;;3.00;2.70;;;22.40;66.10;;;;;;4957687;28;20419;-71
2022/06/15 04:14:30;;;;;;;2.90;2.53;;;22.30;66.00;;;;;;4957965;28;20448;-72
2022/06/15 04:17:10;;;;;;;4.30;2.80;;;22.30;66.10;;;;;;4959128;28;20407;-72
2022/06/15 04:20:33;;;;;;;4.60;3.00;;;22.30;66.10;;;;;;4969323;28;20457;-72
2022/06/15 04:23:09;;;;;;;3.50;2.90;;;22.30;66.20;;;;;;4973320;28;20411;-72
2022/06/15 04:25:43;;;;;;;4.07;2.87;;;22.30;66.30;;;;;;4973156;28;20398;-71
2022/06/15 04:28:11;;;;;;;3.37;2.50;;;22.20;66.30;;;;;;4988912;28;20417;-71
2022/06/15 04:30:46;;;;;;;4.53;2.83;;;22.20;66.30;;;;;;4972700;28;20877;-73
2022/06/15 04:33:13;;;;;;;4.47;2.80;;;22.20;66.30;;;;;;4973132;28;20443;-72
2022/06/15 04:35:42;;;;;;;4.67;3.13;;;22.20;66.40;;;;;;4972512;28;20422;-72
2022/06/15 04:38:15;;;;;;;2.97;2.73;;;22.20;66.40;;;;;;4973056;28;20486;-72
2022/06/15 04:41:02;;;;;;;2.73;2.53;;;22.20;66.50;;;;;;4972785;28;20461;-71
2022/06/15 04:43:31;;;;;;;5.47;2.57;;;22.10;66.40;;;;;;4956865;28;20403;-71
2022/06/15 04:45:57;;;;;;;4.90;2.80;;;22.10;66.40;;;;;;4973071;28;20528;-72
2022/06/15 04:48:26;;;;;;;4.67;2.73;;;22.10;66.50;;;;;;4973144;28;20476;-72
2022/06/15 04:50:55;;;;;;;6.03;2.57;;;22.10;66.50;;;;;;4956732;28;20588;-72
2022/06/15 04:53:32;;;;;;;6.00;2.67;;;22.10;66.60;;;;;;4972709;28;20448;-72
2022/06/15 04:56:01;;;;;;;4.97;2.93;;;22.10;66.60;;;;;;4941231;28;20433;-72
2022/06/15 04:58:30;;;;;;;2.70;2.23;;;22.10;66.70;;;;;;4956994;28;20422;-72
2022/06/15 05:01:02;;;;;;;5.37;2.87;;;22.00;66.70;;;;;;4956625;28;20462;-72
2022/06/15 05:03:28;;;;;;;5.20;2.80;;;22.00;66.80;;;;;;4972793;28;20415;-72
2022/06/15 05:05:56;;;;;;;3.90;2.73;;;22.00;66.90;;;;;;4972430;28;20453;-71
2022/06/15 05:08:26;;;;;;;3.70;2.83;;;22.00;66.90;;;;;;4973128;28;20422;-71
2022/06/15 05:10:58;;;;;;;4.47;2.60;;;22.00;66.90;;;;;;4956409;28;20532;-71
2022/06/15 05:13:29;;;;;;;5.60;2.80;;;22.00;67.00;;;;;;4989407;28;20520;-71
2022/06/15 05:15:58;;;;;;;3.87;2.80;;;22.00;67.10;;;;;;4941105;28;20788;-71
2022/06/15 05:18:24;;;;;;;4.83;3.10;;;22.00;67.20;;;;;;4956556;28;20787;-71
2022/06/15 05:20:51;;;;;;;5.30;3.00;;;22.00;67.30;;;;;;4972467;28;20556;-71
2022/06/15 05:23:20;;;;;;;4.40;2.63;;;22.00;67.30;;;;;;4953055;29;20799;-71
2022/06/15 05:26:24;;;;;;;3.57;2.50;;;22.00;67.40;;;;;;4961446;28;20441;-71
2022/06/15 05:28:52;;;;;;;3.60;2.70;;;22.00;67.50;;;;;;4972311;28;20448;-75
2022/06/15 05:31:21;;;;;;;3.13;2.73;;;21.90;67.50;;;;;;4960887;28;20467;-75
2022/06/15 05:33:55;;;;;;;8.37;3.10;;;22.00;67.70;;;;;;4972542;28;20476;-74
2022/06/15 05:36:27;;;;;;;4.33;2.97;;;21.90;67.60;;;;;;4938323;28;20991;-75
2022/06/15 05:38:56;;;;;;;4.03;3.10;;;21.90;67.80;;;;;;4956141;28;20923;-75
2022/06/15 05:41:23;;;;;;;3.40;3.10;;;21.90;67.70;;;;;;4955885;28;20470;-75
2022/06/15 05:46:22;;;;;;;2.60;2.40;;;21.90;68.00;;;;;;4972543;28;20474;-73
2022/06/15 05:48:56;;;;;;;4.30;3.33;;;21.90;68.00;;;;;;4971876;28;20430;-73
2022/06/15 05:51:24;;;;;;;3.60;2.60;;;21.90;68.10;;;;;;4956075;28;20452;-73
2022/06/15 05:53:52;;;;;;;6.80;3.17;;;21.90;68.20;;;;;;4940166;28;20451;-73
2022/06/15 05:56:20;;;;;;;3.93;2.90;;;21.80;68.20;;;;;;4979446;28;20447;-73
2022/06/15 05:58:47;;;;;;;3.83;2.73;;;21.80;68.30;;;;;;4984553;28;20935;-73
2022/06/15 06:01:25;;;;;;;4.73;2.93;;;21.80;68.30;;;;;;4964624;28;21020;-73
2022/06/15 06:03:54;;;;;;;4.13;2.80;;;21.80;68.40;;;;;;4986066;28;20432;-72
2022/06/15 06:06:21;;;;;;;4.60;2.97;;;21.80;68.40;;;;;;4997602;28;20793;-71
2022/06/15 06:08:47;;;;;;;6.67;3.00;;;21.80;68.50;;;;;;5000599;28;20425;-71
2022/06/15 06:11:14;;;;;;;4.03;3.00;;;21.80;68.60;;;;;;4939886;28;20824;-72
2022/06/15 06:13:46;;;;;;;7.53;3.27;;;21.80;68.60;;;;;;4973376;28;20441;-72
2022/06/15 06:16:15;;;;;;;3.50;3.20;;;21.80;68.60;;;;;;4978326;28;20915;-72
2022/06/15 06:18:43;;;;;;;2.97;2.67;;;21.80;68.70;;;;;;4971644;28;20840;-72
2022/06/15 06:21:14;;;;;;;4.00;3.10;;;21.80;68.70;;;;;;4965625;28;21057;-72
2022/06/15 06:23:43;;;;;;;3.60;2.83;;;21.80;68.80;;;;;;4980773;28;20984;-71
2022/06/15 06:26:23;;;;;;;3.43;2.80;;;21.80;68.90;;;;;;4947557;28;20415;-73
2022/06/15 06:28:52;;;;;;;4.40;2.77;;;21.80;68.90;;;;;;4972622;28;20474;-73
2022/06/15 06:31:20;;;;;;;6.70;3.27;;;21.80;69.00;;;;;;4980922;28;20449;-72
2022/06/15 06:33:48;;;;;;;3.13;2.70;;;21.70;68.90;;;;;;4970095;28;20511;-73
2022/06/15 06:36:34;;;;;;;4.33;2.97;;;21.80;69.10;;;;;;4954664;28;20426;-73
2022/06/15 06:39:03;;;;;;;3.17;2.80;;;21.80;69.10;;;;;;4972707;28;20778;-72
2022/06/15 06:41:31;;;;;;;6.10;3.60;;;21.80;69.00;;;;;;4987948;28;20472;-73
2022/06/15 06:43:59;;;;;;;3.90;2.97;;;21.80;69.10;;;;;;4959491;28;20446;-73
2022/06/15 06:46:37;;;;;;;7.20;3.47;;;21.70;68.90;;;;;;4958946;28;20438;-72
2022/06/15 06:49:08;;;;;;;3.33;3.03;;;21.80;69.20;;;;;;4975135;28;20531;-72
2022/06/15 06:51:36;;;;;;;4.60;2.73;;;21.80;69.20;;;;;;4981714;28;20516;-72
2022/06/15 06:54:04;;;;;;;4.30;3.17;;;21.80;69.10;;;;;;4974615;28;20474;-72
2022/06/15 06:56:31;;;;;;;3.60;2.73;;;21.80;69.10;;;;;;4975075;28;20894;-72
2022/06/15 06:58:59;;;;;;;5.27;2.80;;;21.70;68.90;;;;;;4978808;28;20449;-72
2022/06/15 07:01:25;;;;;;;2.80;2.60;;;21.80;69.10;;;;;;4983826;28;20475;-72
2022/06/15 07:03:54;;;;;;;5.20;2.60;;;21.80;69.00;;;;;;4987247;28;20433;-72
2022/06/15 07:06:24;;;;;;;3.10;2.63;;;21.80;68.90;;;;;;4958854;28;20433;-69
2022/06/15 07:08:52;;;;;;;2.57;2.37;;;21.80;68.90;;;;;;4956781;29;20190;-68
2022/06/15 07:11:20;;;;;;;3.53;2.80;;;21.80;68.90;;;;;;4957773;28;20484;-68
2022/06/15 07:13:47;;;;;;;5.70;2.60;;;21.80;68.80;;;;;;4957689;28;20414;-69
2022/06/15 07:16:19;;;;;;;3.90;2.93;;;21.80;68.80;;;;;;4959991;28;20435;-69
2022/06/15 07:18:50;;;;;;;4.13;3.27;;;21.80;68.90;;;;;;4994831;28;20511;-69
2022/06/15 07:21:20;;;;;;;3.50;3.10;;;21.90;69.00;;;;;;4981052;28;21015;-69
2022/06/15 07:23:49;;;;;;;4.07;2.80;;;21.90;69.10;;;;;;4975489;28;20801;-69
2022/06/15 07:26:24;;;;;;;3.70;2.73;;;21.90;69.10;;;;;;4979553;28;20923;-69
2022/06/15 07:28:50;;;;;;;4.93;2.40;;;21.90;69.20;;;;;;4994988;28;20404;-69
2022/06/15 07:31:33;;;;;;;5.37;3.10;;;21.90;69.20;;;;;;4978789;28;20449;-69
2022/06/15 07:34:00;;;;;;;4.23;2.90;;;21.90;69.20;;;;;;4962808;28;20487;-69
2022/06/15 07:36:26;;;;;;;7.73;3.20;;;21.90;69.30;;;;;;4996447;28;20416;-68
2022/06/15 07:38:55;;;;;;;2.97;2.60;;;21.90;69.30;;;;;;5004876;28;20763;-69
2022/06/15 07:41:22;;;;;;;4.43;3.00;;;22.00;69.50;;;;;;4975161;28;20473;-69
2022/06/15 07:43:51;;;;;;;4.27;3.10;;;21.90;69.50;;;;;;4974940;28;20428;-69
2022/06/15 07:46:19;;;;;;;4.57;3.17;;;21.90;69.60;;;;;;4976679;28;20410;-69
2022/06/15 07:51:35;;;;;;;4.00;3.17;;;22.00;69.90;;;;;;4976769;28;20461;-68
2022/06/15 07:54:04;;;;;;;3.60;3.03;;;22.00;70.00;;;;;;4957869;28;20931;-69
2022/06/15 07:56:31;;;;;;;3.63;2.80;;;22.10;70.20;;;;;;4974656;28;20928;-69
2022/06/15 07:59:02;;;;;;;3.93;2.93;;;22.10;70.20;;;;;;4976051;28;20842;-69
2022/06/15 08:01:31;;;;;;;3.87;2.87;;;22.10;70.30;;;;;;4974672;28;20884;-69
2022/06/15 08:03:57;;;;;;;4.00;3.00;;;22.10;70.30;;;;;;4975063;28;20418;-68
2022/06/15 08:06:28;;;;;;;3.13;2.83;;;22.10;70.30;;;;;;4958511;28;20425;-68
2022/06/15 08:08:59;;;;;;;4.10;3.13;;;22.20;70.50;;;;;;4984306;28;21727;-69
2022/06/15 08:11:25;;;;;;;4.70;3.23;;;22.20;70.50;;;;;;4963293;28;20918;-68
2022/06/15 08:13:55;;;;;;;6.53;3.20;;;22.20;70.70;;;;;;4976224;28;20449;-68
2022/06/15 08:16:21;;;;;;;5.63;3.20;;;22.30;71.10;;;;;;4973444;28;20430;-68
2022/06/15 08:18:54;;;;;;;8.07;4.10;;;22.30;71.60;;;;;;4972564;28;20449;-67
2022/06/15 08:21:27;;;;;;;4.33;2.93;;;22.30;71.50;;;;;;4974912;28;20476;-68
2022/06/15 08:23:58;;;;;;;5.63;3.00;;;22.30;72.30;;;;;;4973110;28;20905;-68
2022/06/15 08:26:29;;;;;;;5.50;3.10;;;22.30;72.50;;;;;;4978620;28;20413;-68
2022/06/15 08:28:58;;;;;;;5.73;2.77;;;22.30;72.20;;;;;;4976367;28;20429;-68
2022/06/15 08:31:25;;;;;;;11.93;3.00;;;22.30;72.30;;;;;;4975373;28;20468;-68
2022/06/15 08:33:51;;;;;;;4.00;2.67;;;22.30;72.80;;;;;;4994145;28;20930;-67
2022/06/15 08:36:20;;;;;;;8.40;2.83;;;22.40;72.90;;;;;;4982779;28;20447;-67
2022/06/15 08:38:47;;;;;;;7.83;2.83;;;22.40;72.50;;;;;;4972625;28;20458;-68
2022/06/15 08:41:36;;;;;;;8.40;3.30;;;22.50;72.60;;;;;;4972838;28;21009;-68
2022/06/15 08:44:13;;;;;;;4.53;2.80;;;22.50;72.60;;;;;;5003858;28;21018;-67
2022/06/15 08:47:18;;;;;;;8.83;3.17;;;22.60;72.50;;;;;;4975015;28;20444;-68
2022/06/15 08:50:07;;;;;;;5.30;2.80;;;22.60;71.30;;;;;;4972647;28;20779;-70
2022/06/15 08:52:47;;;;;;;7.50;3.33;;;22.60;71.50;;;;;;4971505;28;20479;-69
2022/06/15 08:55:42;;;;;;;8.07;3.40;;;22.70;72.50;;;;;;4956452;28;20434;-69
2022/06/15 08:58:50;;;;;;;6.80;3.20;;;22.80;72.20;;;;;;4970380;28;20474;-69
2022/06/15 09:01:30;;;;;;;6.77;3.10;;;22.90;74.60;;;;;;4972242;28;20480;-69
2022/06/15 09:04:29;;;;;;;4.07;2.80;;;23.00;72.20;;;;;;4973636;28;20451;-69
2022/06/15 09:07:19;;;;;;;6.80;3.60;;;23.00;70.50;;;;;;5005287;28;20425;-69
2022/06/15 09:09:56;;;;;;;4.90;2.80;;;23.00;70.30;;;;;;4955862;28;20440;-69
2022/06/15 09:12:58;;;;;;;6.00;3.30;;;23.00;70.60;;;;;;4972726;28;20991;-69
2022/06/15 09:15:45;;;;;;;6.10;2.60;;;23.10;69.70;;;;;;4954557;28;20784;-69
2022/06/15 09:18:26;;;;;;;6.10;3.10;;;23.10;68.80;;;;;;4973200;28;20438;-69
2022/06/15 09:21:32;;;;;;;5.60;3.20;;;23.20;66.40;;;;;;4965179;28;20485;-69
2022/06/15 09:24:03;;;;;;;8.00;2.90;;;23.20;66.20;;;;;;4971395;28;20429;-69
2022/06/15 09:26:49;;;;;;;4.10;2.67;;;23.30;68.00;;;;;;4976032;28;20445;-69
2022/06/15 09:29:34;;;;;;;7.93;3.27;;;23.30;68.10;;;;;;4963076;28;20466;-69
2022/06/15 09:32:06;;;;;;;8.70;3.50;;;23.30;68.10;;;;;;4973185;28;20875;-69
2022/06/15 09:34:37;;;;;;;9.73;2.73;;;23.40;68.10;;;;;;4972237;28;20431;-69
2022/06/15 09:37:09;;;;;;;5.83;2.83;;;23.40;67.40;;;;;;4973524;28;20452;-70
2022/06/15 09:39:37;;;;;;;5.20;3.07;;;23.50;67.70;;;;;;4973721;28;20422;-70
2022/06/15 09:42:04;;;;;;;5.53;3.20;;;23.50;68.60;;;;;;4972923;28;20516;-69
2022/06/15 09:45:02;;;;;;;7.10;3.53;;;23.60;68.90;;;;;;4974602;28;20465;-69
2022/06/15 09:47:31;;;;;;;6.33;3.00;;;23.70;66.80;;;;;;4917849;28;20952;-70
2022/06/15 09:50:17;;;;;;;5.20;3.50;;;23.80;66.10;;;;;;4971664;28;20498;-70
2022/06/15 09:53:04;;;;;;;5.30;2.80;;;23.90;66.80;;;;;;4976782;28;20527;-70
2022/06/15 09:55:44;;;;;;;8.63;2.50;;;24.00;68.10;;;;;;4972587;28;20454;-70
2022/06/15 09:58:19;;;;;;;6.17;3.17;;;24.10;68.90;;;;;;4971437;28;20935;-71
2022/06/15 10:00:49;;;;;;;4.00;3.13;;;24.20;69.30;;;;;;4972302;28;20560;-71
2022/06/15 10:03:29;;;;;;;7.20;2.70;;;24.30;69.00;;;;;;4966228;28;20430;-72
2022/06/15 10:06:17;;;;;;;4.10;2.70;;;24.40;66.20;;;;;;4960966;28;20534;-72
2022/06/15 10:08:48;;;;;;;9.70;3.90;;;24.40;66.20;;;;;;4971409;28;20496;-74
2022/06/15 10:11:39;;;;;;;11.23;3.37;;;24.50;64.80;;;;;;4972206;28;20450;-76
2022/06/15 10:14:32;;;;;;;6.10;2.93;;;24.50;63.80;;;;;;4957524;28;20456;-77
2022/06/15 10:17:02;;;;;;;4.30;3.07;;;24.60;63.50;;;;;;4942997;28;20511;-76
2022/06/15 10:19:33;;;;;;;6.83;3.10;;;24.60;63.90;;;;;;4976280;28;20437;-75
2022/06/15 10:22:19;;;;;;;10.87;4.10;;;24.60;64.90;;;;;;4974570;28;20473;-72
2022/06/15 10:24:49;;;;;;;6.23;2.97;;;24.70;64.70;;;;;;4976451;28;20441;-72
2022/06/15 10:27:21;;;;;;;3.97;2.93;;;24.70;63.50;;;;;;4975527;28;20465;-73
2022/06/15 10:30:14;;;;;;;10.60;3.63;;;24.80;63.20;;;;;;4943577;28;20485;-71
2022/06/15 10:33:12;;;;;;;5.63;3.27;;;24.90;63.00;;;;;;4958434;28;20458;-72
2022/06/15 10:35:39;;;;;;;11.13;3.67;;;24.90;61.30;;;;;;4959614;28;20465;-71
2022/06/15 10:38:11;;;;;;;5.07;3.57;;;24.90;61.00;;;;;;4974544;28;20430;-72
2022/06/15 10:40:48;;;;;;;12.20;3.60;;;25.00;60.50;;;;;;4975643;28;20927;-72
2022/06/15 10:43:30;;;;;;;6.83;3.20;;;25.10;61.50;;;;;;4974785;28;20513;-72
2022/06/15 10:46:07;;;;;;;4.70;3.10;;;25.10;62.30;;;;;;4977027;22;20489;-66
2022/06/15 10:48:52;;;;;;;7.00;3.20;;;25.20;61.60;;;;;;4994593;28;20487;-71
2022/06/15 10:51:35;;;;;;;4.33;2.87;;;25.20;60.90;;;;;;4966045;28;20803;-68
2022/06/15 10:54:20;;;;;;;4.60;3.10;;;25.30;60.20;;;;;;4981208;28;20425;-68
2022/06/15 11:03:07;;;;;;;7.27;3.07;;;25.40;62.80;;;;;;4881152;29;20966;-68
2022/06/15 11:05:38;;;;;;;6.00;3.10;;;25.50;62.50;;;;;;4942305;28;20436;-68
2022/06/15 11:08:15;;;;;;;4.27;3.77;;;25.60;60.20;;;;;;4990449;28;20444;-68
2022/06/15 11:10:50;;;;;;;4.03;2.77;;;25.70;59.70;;;;;;4974628;28;20461;-68
2022/06/15 11:13:28;;;;;;;7.60;3.30;;;25.70;59.20;;;;;;4990626;28;20495;-68
2022/06/15 11:19:08;;;;;;;3.60;2.63;;;25.90;58.50;;;;;;4982042;28;20459;-68
2022/06/15 11:21:50;;;;;;;4.10;2.97;;;25.90;58.90;;;;;;4970544;28;20499;-67
2022/06/15 11:24:47;;;;;;;5.13;2.93;;;25.90;59.30;;;;;;4993936;28;20430;-68
2022/06/15 11:27:39;;;;;;;5.17;2.90;;;26.00;59.50;;;;;;4994290;28;20426;-67
2022/06/15 11:30:25;;;;;;;4.60;2.77;;;26.10;58.70;;;;;;4986837;28;20436;-68
2022/06/15 11:33:20;;;;;;;4.90;2.60;;;26.10;59.20;;;;;;4977674;28;20492;-68
2022/06/15 11:36:06;;;;;;;4.00;2.70;;;26.20;59.00;;;;;;4995262;28;20414;-68
2022/06/15 11:38:39;;;;;;;5.30;3.33;;;26.20;58.20;;;;;;4975333;28;20426;-68
2022/06/15 11:41:20;;;;;;;4.60;2.80;;;26.30;58.10;;;;;;4985881;28;20469;-68
2022/06/15 11:43:50;;;;;;;4.60;3.03;;;26.30;57.60;;;;;;4977898;28;20551;-68
2022/06/15 11:46:41;;;;;;;3.60;2.47;;;26.30;57.60;;;;;;4977237;28;20903;-68
2022/06/15 11:49:15;;;;;;;4.10;2.60;;;26.40;57.10;;;;;;4989332;28;20434;-67
2022/06/15 11:52:18;;;;;;;8.13;2.77;;;26.40;57.70;;;;;;4993445;28;20453;-68
2022/06/15 11:55:09;;;;;;;8.00;3.13;;;26.50;57.60;;;;;;4976814;28;20441;-68
2022/06/15 11:58:03;;;;;;;4.93;2.83;;;26.50;57.60;;;;;;5008253;28;20497;-67
2022/06/15 12:01:02;;;;;;;8.33;2.70;;;26.60;57.00;;;;;;4990603;28;20434;-68
2022/06/15 12:04:06;;;;;;;4.50;2.67;;;26.60;56.90;;;;;;4940969;28;20445;-67
2022/06/15 12:06:53;;;;;;;6.90;3.10;;;26.60;56.30;;;;;;5005889;28;20452;-68
2022/06/15 12:09:38;;;;;;;7.23;2.60;;;26.70;57.10;;;;;;4991687;28;20437;-68
2022/06/15 12:12:38;;;;;;;5.10;2.60;;;26.70;56.00;;;;;;4991886;28;20788;-68
2022/06/15 12:15:19;;;;;;;7.13;4.03;;;26.80;56.20;;;;;;4994144;28;20476;-68
2022/06/15 12:18:06;;;;;;;6.13;3.10;;;26.90;56.80;;;;;;4992297;28;20535;-68
2022/06/15 12:20:42;;;;;;;4.07;2.63;;;26.90;55.60;;;;;;4994140;28;20537;-68
2022/06/15 12:23:19;;;;;;;4.90;3.00;;;26.90;55.90;;;;;;4991588;28;20538;-68
2022/06/15 12:25:59;;;;;;;5.17;2.50;;;27.00;54.80;;;;;;4986055;28;20432;-67
2022/06/15 12:28:51;;;;;;;3.20;2.43;;;27.00;56.30;;;;;;4992053;28;20508;-68
2022/06/15 12:31:31;;;;;;;9.90;3.37;;;27.10;56.40;;;;;;4989781;28;20468;-68
2022/06/15 12:34:12;;;;;;;8.03;2.83;;;27.10;55.50;;;;;;4987530;28;21110;-69
2022/06/15 12:36:43;;;;;;;8.27;2.60;;;27.10;55.30;;;;;;4991912;28;20477;-70
2022/06/15 12:39:24;;;;;;;4.00;2.37;;;27.20;56.70;;;;;;4989801;28;20493;-69
2022/06/15 12:42:10;;;;;;;3.93;3.07;;;27.20;56.40;;;;;;4974536;28;20838;-69
2022/06/15 12:45:05;;;;;;;8.40;2.83;;;27.30;56.10;;;;;;4974399;28;20437;-69
2022/06/15 12:47:33;;;;;;;5.30;3.17;;;27.40;55.80;;;;;;4941990;28;20981;-69
2022/06/15 12:50:06;;;;;;;5.23;2.60;;;27.50;55.60;;;;;;4986723;28;20421;-69
2022/06/15 12:53:00;;;;;;;4.80;2.83;;;27.50;55.10;;;;;;4977792;28;20507;-69
2022/06/15 12:55:36;;;;;;;6.03;2.60;;;27.60;54.90;;;;;;4994788;28;20416;-68
2022/06/15 12:58:07;;;;;;;3.10;2.80;;;27.70;54.80;;;;;;4993410;28;20411;-68
2022/06/15 13:00:41;;;;;;;6.50;2.80;;;27.70;54.70;;;;;;4992928;28;20504;-69
2022/06/15 13:03:46;;;;;;;3.53;2.60;;;27.80;54.60;;;;;;4993885;28;20882;-67
2022/06/15 13:07:03;;;;;;;3.63;2.73;;;27.70;53.90;;;;;;4993990;28;20409;-69
2022/06/15 13:09:39;;;;;;;5.20;2.50;;;27.80;54.10;;;;;;4957095;28;20975;-69
2022/06/15 13:12:12;;;;;;;5.70;2.73;;;27.80;53.30;;;;;;4976259;28;20832;-68
2022/06/15 13:15:04;;;;;;;9.23;3.30;;;27.80;52.70;;;;;;4993972;28;20443;-68
2022/06/15 13:18:12;;;;;;;4.33;2.43;;;27.90;53.10;;;;;;4992583;28;20414;-69
2022/06/15 13:20:48;;;;;;;5.90;3.30;;;27.90;53.50;;;;;;4993196;28;20444;-68
2022/06/15 13:23:39;;;;;;;6.60;2.83;;;27.90;52.90;;;;;;4993600;28;20851;-68
2022/06/15 13:26:10;;;;;;;3.10;2.80;;;28.00;52.70;;;;;;4993681;28;20405;-70
2022/06/15 13:28:41;;;;;;;2.73;2.30;;;28.10;52.00;;;;;;4992674;28;20421;-68
2022/06/15 13:31:33;;;;;;;5.20;2.30;;;28.10;51.90;;;;;;4976351;28;20453;-68
2022/06/15 13:34:02;;;;;;;3.23;2.40;;;28.10;51.70;;;;;;4976309;28;20436;-69
2022/06/15 13:36:29;;;;;;;3.77;3.37;;;28.20;52.50;;;;;;4993351;28;20647;-69
2022/06/15 13:38:58;;;;;;;5.70;2.77;;;28.30;52.80;;;;;;4993832;28;20445;-67
2022/06/15 13:41:33;;;;;;;6.77;3.50;;;28.40;51.10;;;;;;4992448;28;20504;-68
2022/06/15 13:44:07;;;;;;;5.07;2.90;;;28.40;50.80;;;;;;4976427;28;20427;-69
2022/06/15 13:46:39;;;;;;;4.30;2.43;;;28.40;51.00;;;;;;4993257;28;20437;-69
2022/06/15 13:49:23;;;;;;;4.77;2.50;;;28.50;51.50;;;;;;4992512;28;20821;-69
2022/06/15 13:52:10;;;;;;;9.97;3.60;;;28.60;50.80;;;;;;4987938;28;20556;-69